sensor_id;sensor_type;location;lat;lon;timestamp;pressure;altitude;pressure_sealevel;temperature;humidity
24045;BME280;26257;49.442;8.422;2022-11-20T00:01:24;100067.78;;;8.25;100.00
24045;BME280;26257;49.442;8.422;2022-11-20T00:03:52;100049.75;;;8.52;100.00
24045;BME280;26257;49.442;8.422;2022-11-20T00:06:19;100041.28;;;8.80;100.00
24045;BME280;26257;49.442;8.422;2022-11-20T00:08:45;100050.75;;;8.63;100.00
24045;BME280;26257;49.442;8.422;2022-11-20T00:11:15;100038.38;;;8.54;100.00
24045;BME280;26257;49.442;8.422;2022-11-20T00:13:42;100033.47;;;8.86;100.00
24045;BME280;26257;49.442;8.422;2022-11-20T00:16:10;100034.25;;;8.79;100.00
24045;BME280;26257;49.442;8.422;2022-11-20T00:18:36;100028.78;;;8.61;100.00
24045;BME280;26257;49.442;8.422;2022-11-20T00:21:18;100049.38;;;8.25;100.00
24045;BME280;26257;49.442;8.422;2022-11-20T00:23:44;100038.91;;;8.28;100.00
24045;BME280;26257;49.442;8.422;2022-11-20T00:26:16;100040.72;;;8.32;100.00
24045;BME280;26257;49.442;8.422;2022-11-20T00:28:43;100036.00;;;8.77;100.00
24045;BME280;26257;49.442;8.422;2022-11-20T00:31:14;100043.59;;;8.51;100.00
24045;BME280;26257;49.442;8.422;2022-11-20T00:33:41;100037.03;;;8.93;100.00
24045;BME280;26257;49.442;8.422;2022-11-20T00:36:10;100033.69;;;9.09;100.00
24045;BME280;26257;49.442;8.422;2022-11-20T00:38:36;100032.88;;;9.17;100.00
24045;BME280;26257;49.442;8.422;2022-11-20T00:41:04;100045.13;;;9.12;100.00
24045;BME280;26257;49.442;8.422;2022-11-20T00:43:30;100037.97;;;9.01;100.00
24045;BME280;26257;49.442;8.422;2022-11-20T00:45:57;100022.44;;;9.29;100.00
24045;BME280;26257;49.442;8.422;2022-11-20T00:48:22;100056.13;;;8.04;100.00
24045;BME280;26257;49.442;8.422;2022-11-20T00:50:48;100044.66;;;8.67;100.00
24045;BME280;26257;49.442;8.422;2022-11-20T00:53:14;100051.50;;;8.53;100.00
24045;BME280;26257;49.442;8.422;2022-11-20T00:55:39;100050.09;;;8.82;100.00
24045;BME280;26257;49.442;8.422;2022-11-20T00:58:04;100046.75;;;8.98;100.00
24045;BME280;26257;49.442;8.422;2022-11-20T01:00:30;100049.41;;;9.03;100.00
24045;BME280;26257;49.442;8.422;2022-11-20T01:02:55;100049.00;;;8.62;100.00
24045;BME280;26257;49.442;8.422;2022-11-20T01:05:21;100046.75;;;8.98;100.00
24045;BME280;26257;49.442;8.422;2022-11-20T01:07:46;100034.09;;;8.64;100.00
24045;BME280;26257;49.442;8.422;2022-11-20T01:10:12;100038.03;;;9.05;100.00
24045;BME280;26257;49.442;8.422;2022-11-20T01:12:37;100038.94;;;9.09;100.00
24045;BME280;26257;49.442;8.422;2022-11-20T01:15:03;100038.50;;;8.65;100.00
24045;BME280;26257;49.442;8.422;2022-11-20T01:17:28;100040.53;;;8.18;100.00
24045;BME280;26257;49.442;8.422;2022-11-20T01:19:53;100037.34;;;8.42;100.00
24045;BME280;26257;49.442;8.422;2022-11-20T01:22:19;100040.13;;;8.52;100.00
24045;BME280;26257;49.442;8.422;2022-11-20T01:24:44;100032.53;;;8.84;100.00
24045;BME280;26257;49.442;8.422;2022-11-20T01:27:10;100023.97;;;9.03;100.00
24045;BME280;26257;49.442;8.422;2022-11-20T01:29:35;100029.09;;;8.88;100.00
24045;BME280;26257;49.442;8.422;2022-11-20T01:32:01;100036.06;;;8.85;100.00
24045;BME280;26257;49.442;8.422;2022-11-20T01:34:26;100034.00;;;8.55;100.00
24045;BME280;26257;49.442;8.422;2022-11-20T01:36:52;100042.66;;;8.48;100.00
24045;BME280;26257;49.442;8.422;2022-11-20T01:39:21;100049.50;;;8.31;100.00
24045;BME280;26257;49.442;8.422;2022-11-20T01:41:47;100043.38;;;8.33;100.00
24045;BME280;26257;49.442;8.422;2022-11-20T01:47:21;100036.47;;;8.43;100.00
24045;BME280;26257;49.442;8.422;2022-11-20T01:49:54;100025.59;;;8.16;100.00
24045;BME280;26257;49.442;8.422;2022-11-20T01:52:52;100016.44;;;8.54;100.00
24045;BME280;26257;49.442;8.422;2022-11-20T01:55:23;100021.78;;;8.63;100.00
24045;BME280;26257;49.442;8.422;2022-11-20T01:57:50;100011.56;;;8.93;100.00
24045;BME280;26257;49.442;8.422;2022-11-20T02:00:18;100013.22;;;8.82;100.00
24045;BME280;26257;49.442;8.422;2022-11-20T02:02:48;100006.41;;;9.05;100.00
24045;BME280;26257;49.442;8.422;2022-11-20T02:07:59;100011.63;;;8.99;100.00
24045;BME280;26257;49.442;8.422;2022-11-20T02:10:28;100003.06;;;9.24;100.00
24045;BME280;26257;49.442;8.422;2022-11-20T02:12:54;100017.13;;;9.26;99.78
24045;BME280;26257;49.442;8.422;2022-11-20T02:15:38;100021.53;;;8.40;100.00
24045;BME280;26257;49.442;8.422;2022-11-20T02:18:05;100017.88;;;8.28;100.00
24045;BME280;26257;49.442;8.422;2022-11-20T02:20:31;100018.28;;;8.64;100.00
24045;BME280;26257;49.442;8.422;2022-11-20T02:23:00;100024.78;;;8.96;100.00
24045;BME280;26257;49.442;8.422;2022-11-20T02:25:29;100034.00;;;8.55;100.00
24045;BME280;26257;49.442;8.422;2022-11-20T02:27:56;100016.97;;;9.08;100.00
24045;BME280;26257;49.442;8.422;2022-11-20T02:30:21;100005.63;;;9.14;100.00
24045;BME280;26257;49.442;8.422;2022-11-20T02:32:46;100014.09;;;8.81;100.00
24045;BME280;26257;49.442;8.422;2022-11-20T02:37:44;99997.56;;;9.00;100.00
24045;BME280;26257;49.442;8.422;2022-11-20T02:40:13;99992.53;;;9.24;100.00
24045;BME280;26257;49.442;8.422;2022-11-20T02:42:38;99998.63;;;9.19;100.00
24045;BME280;26257;49.442;8.422;2022-11-20T02:45:04;100004.56;;;8.95;100.00
24045;BME280;26257;49.442;8.422;2022-11-20T02:47:30;100001.97;;;8.98;100.00
24045;BME280;26257;49.442;8.422;2022-11-20T03:08:58;100019.34;;;8.07;100.00
24045;BME280;26257;49.442;8.422;2022-11-20T03:11:23;100005.56;;;8.27;100.00
24045;BME280;26257;49.442;8.422;2022-11-20T03:13:49;100000.44;;;8.36;100.00
24045;BME280;26257;49.442;8.422;2022-11-20T03:16:17;99994.50;;;8.58;100.00
24045;BME280;26257;49.442;8.422;2022-11-20T03:18:43;99983.25;;;8.71;100.00
24045;BME280;26257;49.442;8.422;2022-11-20T03:21:11;99983.28;;;8.74;100.00
24045;BME280;26257;49.442;8.422;2022-11-20T03:23:37;99992.09;;;8.79;100.00
24045;BME280;26257;49.442;8.422;2022-11-20T03:26:17;99993.78;;;8.68;100.00
24045;BME280;26257;49.442;8.422;2022-11-20T03:28:54;99989.44;;;8.76;100.00
24045;BME280;26257;49.442;8.422;2022-11-20T03:31:22;99970.72;;;8.46;100.00
24045;BME280;26257;49.442;8.422;2022-11-20T03:33:48;100001.97;;;8.22;100.00
24045;BME280;26257;49.442;8.422;2022-11-20T03:36:15;99997.19;;;8.61;100.00
24045;BME280;26257;49.442;8.422;2022-11-20T03:38:41;99996.41;;;8.71;100.00
24045;BME280;26257;49.442;8.422;2022-11-20T03:41:09;99989.66;;;8.96;100.00
24045;BME280;26257;49.442;8.422;2022-11-20T03:43:35;99982.25;;;8.58;100.00
24045;BME280;26257;49.442;8.422;2022-11-20T03:46:01;99984.94;;;8.64;100.00
24045;BME280;26257;49.442;8.422;2022-11-20T03:48:27;99987.69;;;8.77;100.00
24045;BME280;26257;49.442;8.422;2022-11-20T03:51:05;99979.06;;;8.91;100.00
24045;BME280;26257;49.442;8.422;2022-11-20T03:53:31;99970.22;;;8.85;100.00
24045;BME280;26257;49.442;8.422;2022-11-20T03:55:56;99972.63;;;8.62;100.00
24045;BME280;26257;49.442;8.422;2022-11-20T03:58:22;99975.56;;;8.92;100.00
24045;BME280;26257;49.442;8.422;2022-11-20T04:00:47;99966.09;;;9.15;100.00
24045;BME280;26257;49.442;8.422;2022-11-20T04:03:12;99976.09;;;7.86;100.00
24045;BME280;26257;49.442;8.422;2022-11-20T04:05:38;99990.97;;;8.53;100.00
24045;BME280;26257;49.442;8.422;2022-11-20T04:08:03;99979.78;;;8.75;100.00
24045;BME280;26257;49.442;8.422;2022-11-20T04:10:29;99977.16;;;8.77;100.00
24045;BME280;26257;49.442;8.422;2022-11-20T04:12:54;99958.09;;;9.05;100.00
24045;BME280;26257;49.442;8.422;2022-11-20T04:15:20;99963.44;;;9.15;100.00
24045;BME280;26257;49.442;8.422;2022-11-20T04:17:45;99963.28;;;8.91;100.00
24045;BME280;26257;49.442;8.422;2022-11-20T04:20:10;99968.94;;;8.45;100.00
24045;BME280;26257;49.442;8.422;2022-11-20T04:22:36;99984.69;;;8.39;100.00
24045;BME280;26257;49.442;8.422;2022-11-20T04:25:02;99974.28;;;8.51;100.00
24045;BME280;26257;49.442;8.422;2022-11-20T04:27:27;99985.72;;;8.56;100.00
24045;BME280;26257;49.442;8.422;2022-11-20T04:29:53;99974.38;;;8.63;100.00
24045;BME280;26257;49.442;8.422;2022-11-20T04:32:18;99984.81;;;8.51;100.00
24045;BME280;26257;49.442;8.422;2022-11-20T04:34:43;99967.38;;;8.62;100.00
24045;BME280;26257;49.442;8.422;2022-11-20T04:37:09;99958.13;;;9.06;100.00
24045;BME280;26257;49.442;8.422;2022-11-20T04:39:34;99969.53;;;9.08;100.00
24045;BME280;26257;49.442;8.422;2022-11-20T04:42:00;99968.44;;;8.82;100.00
24045;BME280;26257;49.442;8.422;2022-11-20T04:44:43;99965.13;;;9.06;100.00
24045;BME280;26257;49.442;8.422;2022-11-20T04:47:09;99964.16;;;8.93;100.00
24045;BME280;26257;49.442;8.422;2022-11-20T04:49:34;99970.34;;;9.00;100.00
24045;BME280;26257;49.442;8.422;2022-11-20T04:52:00;99966.47;;;8.63;100.00
24045;BME280;26257;49.442;8.422;2022-11-20T04:54:25;99971.84;;;8.74;100.00
24045;BME280;26257;49.442;8.422;2022-11-20T04:56:50;99964.13;;;8.90;100.00
24045;BME280;26257;49.442;8.422;2022-11-20T04:59:16;99957.34;;;9.19;100.00
24045;BME280;26257;49.442;8.422;2022-11-20T05:01:41;99959.09;;;9.17;100.00
24045;BME280;26257;49.442;8.422;2022-11-20T05:04:07;99940.75;;;9.34;100.00
24045;BME280;26257;49.442;8.422;2022-11-20T05:06:33;99943.84;;;8.82;100.00
24045;BME280;26257;49.442;8.422;2022-11-20T05:08:59;99941.19;;;8.77;100.00
24045;BME280;26257;49.442;8.422;2022-11-20T05:11:24;99942.06;;;8.78;100.00
24045;BME280;26257;49.442;8.422;2022-11-20T05:13:50;99952.16;;;8.34;100.00
24045;BME280;26257;49.442;8.422;2022-11-20T05:16:19;99941.25;;;8.83;100.00
24045;BME280;26257;49.442;8.422;2022-11-20T05:18:45;99952.31;;;8.49;100.00
24045;BME280;26257;49.442;8.422;2022-11-20T05:21:11;99943.94;;;8.91;100.00
24045;BME280;26257;49.442;8.422;2022-11-20T05:23:38;99944.31;;;8.40;100.00
24045;BME280;26257;49.442;8.422;2022-11-20T05:26:04;99954.75;;;8.31;100.00
24045;BME280;26257;49.442;8.422;2022-11-20T05:28:31;99955.16;;;8.70;100.00
24045;BME280;26257;49.442;8.422;2022-11-20T05:31:04;99969.16;;;8.66;100.00
24045;BME280;26257;49.442;8.422;2022-11-20T05:33:30;99957.00;;;8.80;100.00
24045;BME280;26257;49.442;8.422;2022-11-20T05:35:58;99958.22;;;9.17;100.00
24045;BME280;26257;49.442;8.422;2022-11-20T05:38:23;99948.41;;;9.01;100.00
24045;BME280;26257;49.442;8.422;2022-11-20T05:40:49;99937.19;;;9.29;100.00
24045;BME280;26257;49.442;8.422;2022-11-20T05:43:14;99940.25;;;8.74;100.00
24045;BME280;26257;49.442;8.422;2022-11-20T05:45:39;99944.97;;;9.11;100.00
24045;BME280;26257;49.442;8.422;2022-11-20T05:48:05;99943.16;;;8.99;100.00
24045;BME280;26257;49.442;8.422;2022-11-20T05:50:30;99955.06;;;8.61;100.00
24045;BME280;26257;49.442;8.422;2022-11-20T05:52:59;99942.25;;;9.00;100.00
24045;BME280;26257;49.442;8.422;2022-11-20T05:55:25;99936.97;;;8.96;100.00
24045;BME280;26257;49.442;8.422;2022-11-20T05:57:53;99923.13;;;9.22;100.00
24045;BME280;26257;49.442;8.422;2022-11-20T06:00:18;99916.88;;;9.11;100.00
24045;BME280;26257;49.442;8.422;2022-11-20T06:02:44;99912.56;;;9.19;100.00
24045;BME280;26257;49.442;8.422;2022-11-20T06:05:09;99921.72;;;8.63;100.00
24045;BME280;26257;49.442;8.422;2022-11-20T06:07:35;99918.53;;;9.00;100.00
24045;BME280;26257;49.442;8.422;2022-11-20T06:10:00;99924.03;;;9.27;100.00
24045;BME280;26257;49.442;8.422;2022-11-20T06:12:25;99929.97;;;8.99;100.00
24045;BME280;26257;49.442;8.422;2022-11-20T06:14:51;99927.00;;;8.60;100.00
24045;BME280;26257;49.442;8.422;2022-11-20T06:17:16;99932.56;;;8.96;100.00
24045;BME280;26257;49.442;8.422;2022-11-20T06:19:42;99921.34;;;9.21;100.00
24045;BME280;26257;49.442;8.422;2022-11-20T06:22:07;99911.75;;;9.29;100.00
24045;BME280;26257;49.442;8.422;2022-11-20T06:24:33;99918.50;;;8.97;100.00
24045;BME280;26257;49.442;8.422;2022-11-20T06:26:58;99920.38;;;9.10;100.00
24045;BME280;26257;49.442;8.422;2022-11-20T06:29:24;99927.50;;;9.23;100.00
24045;BME280;26257;49.442;8.422;2022-11-20T06:31:49;99926.56;;;9.14;100.00
24045;BME280;26257;49.442;8.422;2022-11-20T06:34:14;99932.75;;;9.20;100.00
24045;BME280;26257;49.442;8.422;2022-11-20T06:36:40;99928.53;;;9.44;100.00
24045;BME280;26257;49.442;8.422;2022-11-20T06:39:05;99925.97;;;9.56;100.00
24045;BME280;26257;49.442;8.422;2022-11-20T06:41:30;99920.78;;;9.74;100.00
24045;BME280;26257;49.442;8.422;2022-11-20T06:43:56;99924.03;;;9.33;100.00
24045;BME280;26257;49.442;8.422;2022-11-20T06:46:21;99925.97;;;9.56;100.00
24045;BME280;26257;49.442;8.422;2022-11-20T06:48:48;99944.84;;;8.97;100.00
24045;BME280;26257;49.442;8.422;2022-11-20T06:51:14;99945.88;;;9.11;100.00
24045;BME280;26257;49.442;8.422;2022-11-20T06:53:40;99952.78;;;9.00;100.00
24045;BME280;26257;49.442;8.422;2022-11-20T06:56:06;99948.59;;;9.26;100.00
24045;BME280;26257;49.442;8.422;2022-11-20T06:58:34;99936.28;;;9.24;100.00
24045;BME280;26257;49.442;8.422;2022-11-20T07:01:00;99942.50;;;9.32;100.00
24045;BME280;26257;49.442;8.422;2022-11-20T07:03:26;99932.03;;;9.47;100.00
24045;BME280;26257;49.442;8.422;2022-11-20T07:05:54;99940.03;;;9.58;100.00
24045;BME280;26257;49.442;8.422;2022-11-20T07:08:20;99938.22;;;9.51;100.00
24045;BME280;26257;49.442;8.422;2022-11-20T07:10:45;99939.06;;;9.45;100.00
24045;BME280;26257;49.442;8.422;2022-11-20T07:13:11;99939.59;;;8.97;100.00
24045;BME280;26257;49.442;8.422;2022-11-20T07:15:36;99943.22;;;9.11;100.00
24045;BME280;26257;49.442;8.422;2022-11-20T07:18:02;99950.28;;;9.12;100.00
24045;BME280;26257;49.442;8.422;2022-11-20T07:20:27;99948.47;;;9.08;100.00
24045;BME280;26257;49.442;8.422;2022-11-20T07:22:57;99946.97;;;9.41;100.00
24045;BME280;26257;49.442;8.422;2022-11-20T07:25:23;99941.63;;;9.31;100.00
24045;BME280;26257;49.442;8.422;2022-11-20T07:27:49;99945.91;;;9.19;100.00
24045;BME280;26257;49.442;8.422;2022-11-20T07:30:18;99951.97;;;9.07;100.00
24045;BME280;26257;49.442;8.422;2022-11-20T07:32:50;99945.91;;;9.20;100.00
24045;BME280;26257;49.442;8.422;2022-11-20T07:35:16;99954.00;;;9.43;100.00
24045;BME280;26257;49.442;8.422;2022-11-20T07:37:41;99959.03;;;9.11;100.00
24045;BME280;26257;49.442;8.422;2022-11-20T07:40:07;99955.91;;;9.67;100.00
24045;BME280;26257;49.442;8.422;2022-11-20T07:42:32;99956.38;;;9.07;100.00
24045;BME280;26257;49.442;8.422;2022-11-20T07:44:58;99952.31;;;9.56;100.00
24045;BME280;26257;49.442;8.422;2022-11-20T07:47:23;99954.22;;;9.81;100.00
24045;BME280;26257;49.442;8.422;2022-11-20T07:49:48;99954.31;;;9.99;100.00
24045;BME280;26257;49.442;8.422;2022-11-20T07:52:14;99951.69;;;10.01;100.00
24045;BME280;26257;49.442;8.422;2022-11-20T07:54:39;99956.06;;;10.00;100.00
24045;BME280;26257;49.442;8.422;2022-11-20T07:57:04;99950.84;;;10.11;100.00
24045;BME280;26257;49.442;8.422;2022-11-20T07:59:30;99956.03;;;9.94;100.00
24045;BME280;26257;49.442;8.422;2022-11-20T08:01:56;99955.28;;;10.15;100.00
24045;BME280;26257;49.442;8.422;2022-11-20T08:04:21;99950.75;;;9.85;100.00
24045;BME280;26257;49.442;8.422;2022-11-20T08:06:48;99958.47;;;9.55;100.00
24045;BME280;26257;49.442;8.422;2022-11-20T08:09:14;99952.56;;;9.98;100.00
24045;BME280;26257;49.442;8.422;2022-11-20T08:11:39;99947.41;;;10.25;100.00
24045;BME280;26257;49.442;8.422;2022-11-20T08:14:23;99952.72;;;10.34;100.00
24045;BME280;26257;49.442;8.422;2022-11-20T08:16:49;99956.19;;;10.18;100.00
24045;BME280;26257;49.442;8.422;2022-11-20T08:19:17;99963.38;;;10.74;100.00
24045;BME280;26257;49.442;8.422;2022-11-20T08:21:43;99960.72;;;10.65;100.00
24045;BME280;26257;49.442;8.422;2022-11-20T08:24:10;99966.91;;;10.88;100.00
24045;BME280;26257;49.442;8.422;2022-11-20T08:26:36;99968.66;;;10.71;100.00
24045;BME280;26257;49.442;8.422;2022-11-20T08:29:05;99967.69;;;10.43;100.00
24045;BME280;26257;49.442;8.422;2022-11-20T08:31:31;99979.06;;;10.25;100.00
24045;BME280;26257;49.442;8.422;2022-11-20T08:33:57;99996.50;;;9.96;100.00
24045;BME280;26257;49.442;8.422;2022-11-20T08:36:23;99991.09;;;9.72;100.00
24045;BME280;26257;49.442;8.422;2022-11-20T08:38:50;99980.84;;;10.26;100.00
24045;BME280;26257;49.442;8.422;2022-11-20T08:41:16;100001.75;;;9.87;100.00
24045;BME280;26257;49.442;8.422;2022-11-20T08:44:04;99998.44;;;10.27;100.00
24045;BME280;26257;49.442;8.422;2022-11-20T08:46:41;99993.09;;;10.12;100.00
24045;BME280;26257;49.442;8.422;2022-11-20T08:49:11;99989.69;;;10.40;100.00
24045;BME280;26257;49.442;8.422;2022-11-20T09:08:38;100040.31;;;9.67;100.00
24045;BME280;26257;49.442;8.422;2022-11-20T09:11:04;100025.72;;;10.26;100.00
24045;BME280;26257;49.442;8.422;2022-11-20T09:13:30;100012.56;;;10.37;100.00
24045;BME280;26257;49.442;8.422;2022-11-20T09:15:57;100013.47;;;10.42;100.00
24045;BME280;26257;49.442;8.422;2022-11-20T09:18:26;100004.75;;;10.72;100.00
24045;BME280;26257;49.442;8.422;2022-11-20T09:20:56;100003.81;;;10.51;100.00
24045;BME280;26257;49.442;8.422;2022-11-20T09:23:21;100007.28;;;10.32;100.00
24045;BME280;26257;49.442;8.422;2022-11-20T09:25:47;100013.50;;;10.57;100.00
24045;BME280;26257;49.442;8.422;2022-11-20T09:28:12;100009.06;;;10.41;100.00
24045;BME280;26257;49.442;8.422;2022-11-20T09:30:38;100017.09;;;10.73;100.00
24045;BME280;26257;49.442;8.422;2022-11-20T09:33:04;100010.94;;;10.86;100.00
24045;BME280;26257;49.442;8.422;2022-11-20T09:35:30;100017.94;;;10.60;100.00
24045;BME280;26257;49.442;8.422;2022-11-20T09:37:55;100017.09;;;10.79;100.00
24045;BME280;26257;49.442;8.422;2022-11-20T09:40:26;100021.56;;;11.13;100.00
24045;BME280;26257;49.442;8.422;2022-11-20T09:48:45;100020.59;;;10.63;100.00
24045;BME280;26257;49.442;8.422;2022-11-20T09:54:13;100014.50;;;11.06;100.00
24045;BME280;26257;49.442;8.422;2022-11-20T09:56:44;100022.34;;;10.74;100.00
24045;BME280;26257;49.442;8.422;2022-11-20T09:59:24;100025.94;;;10.84;100.00
24045;BME280;26257;49.442;8.422;2022-11-20T10:01:54;100023.31;;;10.99;100.00
24045;BME280;26257;49.442;8.422;2022-11-20T10:04:20;100029.41;;;10.72;100.00
24045;BME280;26257;49.442;8.422;2022-11-20T10:09:29;100019.75;;;10.82;100.00
24045;BME280;26257;49.442;8.422;2022-11-20T10:14:56;100016.25;;;11.01;100.00
24045;BME280;26257;49.442;8.422;2022-11-20T10:17:53;100016.25;;;11.34;100.00
24045;BME280;26257;49.442;8.422;2022-11-20T10:23:48;100005.69;;;11.64;100.00
24045;BME280;26257;49.442;8.422;2022-11-20T10:26:38;100009.22;;;11.18;100.00
24045;BME280;26257;49.442;8.422;2022-11-20T10:29:36;100011.78;;;10.70;100.00
24045;BME280;26257;49.442;8.422;2022-11-20T10:32:13;100017.03;;;10.54;100.00
24045;BME280;26257;49.442;8.422;2022-11-20T10:37:32;100002.16;;;11.59;100.00
24045;BME280;26257;49.442;8.422;2022-11-20T10:42:56;99999.50;;;11.03;100.00
24045;BME280;26257;49.442;8.422;2022-11-20T10:45:32;99986.31;;;11.32;100.00
24045;BME280;26257;49.442;8.422;2022-11-20T10:50:37;99996.88;;;11.37;100.00
24045;BME280;26257;49.442;8.422;2022-11-20T10:53:33;99991.59;;;11.23;100.00
24045;BME280;26257;49.442;8.422;2022-11-20T10:56:20;99989.84;;;11.10;100.00
24045;BME280;26257;49.442;8.422;2022-11-20T11:01:41;99985.41;;;11.57;100.00
24045;BME280;26257;49.442;8.422;2022-11-20T11:07:01;99975.78;;;13.28;100.00
24045;BME280;26257;49.442;8.422;2022-11-20T11:09:36;99979.63;;;13.89;97.74
24045;BME280;26257;49.442;8.422;2022-11-20T11:12:09;99963.06;;;14.41;90.06
24045;BME280;26257;49.442;8.422;2022-11-20T11:14:49;99952.63;;;14.91;84.37
24045;BME280;26257;49.442;8.422;2022-11-20T11:17:30;99946.81;;;14.65;82.81
24045;BME280;26257;49.442;8.422;2022-11-20T11:22:52;99945.66;;;14.15;85.50
24045;BME280;26257;49.442;8.422;2022-11-20T11:25:30;99933.81;;;14.42;87.58
24045;BME280;26257;49.442;8.422;2022-11-20T11:28:17;99932.28;;;15.40;81.25
24045;BME280;26257;49.442;8.422;2022-11-20T11:30:45;99921.69;;;15.85;77.46
24045;BME280;26257;49.442;8.422;2022-11-20T11:33:18;99912.63;;;17.80;71.36
24045;BME280;26257;49.442;8.422;2022-11-20T11:35:49;99902.13;;;18.33;64.27
24045;BME280;26257;49.442;8.422;2022-11-20T11:38:22;99901.22;;;18.34;62.66
24045;BME280;26257;49.442;8.422;2022-11-20T11:40:53;99898.78;;;19.37;59.04
24045;BME280;26257;49.442;8.422;2022-11-20T11:43:39;99886.19;;;20.60;52.57
24045;BME280;26257;49.442;8.422;2022-11-20T11:49:11;99874.47;;;22.65;44.53
24045;BME280;26257;49.442;8.422;2022-11-20T11:52:00;99878.09;;;21.05;46.67
24045;BME280;26257;49.442;8.422;2022-11-20T11:57:12;99872.53;;;21.51;45.69
24045;BME280;26257;49.442;8.422;2022-11-20T12:02:25;99867.22;;;22.29;45.42
24045;BME280;26257;49.442;8.422;2022-11-20T12:04:58;99864.00;;;22.95;42.34
24045;BME280;26257;49.442;8.422;2022-11-20T12:09:57;99850.06;;;22.31;43.42
24045;BME280;26257;49.442;8.422;2022-11-20T12:12:32;99854.84;;;21.25;44.81
24045;BME280;26257;49.442;8.422;2022-11-20T12:15:00;99859.22;;;20.63;47.08
24045;BME280;26257;49.442;8.422;2022-11-20T12:17:26;99863.25;;;19.82;49.04
24045;BME280;26257;49.442;8.422;2022-11-20T12:19:51;99857.38;;;19.72;50.94
24045;BME280;26257;49.442;8.422;2022-11-20T12:30:25;99877.19;;;15.90;62.56
24045;BME280;26257;49.442;8.422;2022-11-20T12:38:44;99879.53;;;14.60;74.62
24045;BME280;26257;49.442;8.422;2022-11-20T12:43:58;99877.97;;;14.47;75.36
24045;BME280;26257;49.442;8.422;2022-11-20T12:47:16;99874.41;;;14.45;75.16
24045;BME280;26257;49.442;8.422;2022-11-20T12:50:29;99864.28;;;14.08;76.56
24045;BME280;26257;49.442;8.422;2022-11-20T12:52:45;99876.09;;;13.86;77.29
24045;BME280;26257;49.442;8.422;2022-11-20T13:01:30;99872.47;;;13.93;79.27
24045;BME280;26257;49.442;8.422;2022-11-20T13:06:44;99859.19;;;13.93;78.69
24045;BME280;26257;49.442;8.422;2022-11-20T13:09:13;99869.63;;;14.05;78.26
24045;BME280;26257;49.442;8.422;2022-11-20T13:11:47;99857.66;;;13.74;78.07
24045;BME280;26257;49.442;8.422;2022-11-20T13:17:45;99857.16;;;13.42;76.54
24045;BME280;26257;49.442;8.422;2022-11-20T13:20:18;99851.25;;;13.92;75.18
24045;BME280;26257;49.442;8.422;2022-11-20T13:22:46;99847.31;;;14.20;73.08
24045;BME280;26257;49.442;8.422;2022-11-20T13:25:25;99841.72;;;14.40;72.72
24045;BME280;26257;49.442;8.422;2022-11-20T13:27:52;99856.34;;;14.68;71.84
24045;BME280;26257;49.442;8.422;2022-11-20T13:30:25;99840.56;;;14.59;68.54
24045;BME280;26257;49.442;8.422;2022-11-20T13:32:53;99838.94;;;14.49;71.94
24045;BME280;26257;49.442;8.422;2022-11-20T13:35:31;99832.78;;;14.47;69.77
24045;BME280;26257;49.442;8.422;2022-11-20T13:38:05;99827.63;;;14.35;67.07
24045;BME280;26257;49.442;8.422;2022-11-20T13:40:31;99818.72;;;14.92;66.43
24045;BME280;26257;49.442;8.422;2022-11-20T13:43:22;99821.31;;;15.42;65.79
24045;BME280;26257;49.442;8.422;2022-11-20T13:46:08;99809.19;;;15.72;61.16
24045;BME280;26257;49.442;8.422;2022-11-20T13:48:39;99798.41;;;16.92;56.26
24045;BME280;26257;49.442;8.422;2022-11-20T13:53:59;99796.50;;;16.97;52.20
24045;BME280;26257;49.442;8.422;2022-11-20T13:59:26;99805.63;;;16.51;49.93
24045;BME280;26257;49.442;8.422;2022-11-20T14:01:55;99800.91;;;15.86;49.89
24045;BME280;26257;49.442;8.422;2022-11-20T14:04:33;99791.50;;;16.11;50.45
24045;BME280;26257;49.442;8.422;2022-11-20T14:07:05;99790.72;;;15.65;51.46
24045;BME280;26257;49.442;8.422;2022-11-20T14:09:33;99803.88;;;14.80;53.03
24045;BME280;26257;49.442;8.422;2022-11-20T14:12:03;99797.41;;;14.42;54.76
24045;BME280;26257;49.442;8.422;2022-11-20T14:14:30;99804.69;;;14.26;54.79
24045;BME280;26257;49.442;8.422;2022-11-20T14:17:18;99816.16;;;13.69;56.95
24045;BME280;26257;49.442;8.422;2022-11-20T14:19:46;99797.66;;;13.61;56.97
24045;BME280;26257;49.442;8.422;2022-11-20T14:22:24;99789.50;;;13.75;57.71
24045;BME280;26257;49.442;8.422;2022-11-20T14:27:42;99798.00;;;13.34;59.11
24045;BME280;26257;49.442;8.422;2022-11-20T14:30:20;99800.09;;;13.00;59.70
24045;BME280;26257;49.442;8.422;2022-11-20T14:32:46;99791.06;;;13.21;58.86
24045;BME280;26257;49.442;8.422;2022-11-20T14:35:46;99789.56;;;12.92;59.65
24045;BME280;26257;49.442;8.422;2022-11-20T14:38:15;99800.22;;;12.86;60.74
24045;BME280;26257;49.442;8.422;2022-11-20T14:40:41;99805.84;;;12.53;61.58
24045;BME280;26257;49.442;8.422;2022-11-20T14:45:52;99786.91;;;12.91;61.58
24045;BME280;26257;49.442;8.422;2022-11-20T14:51:05;99784.44;;;12.77;64.11
24045;BME280;26257;49.442;8.422;2022-11-20T14:53:33;99779.19;;;12.71;63.95
24045;BME280;26257;49.442;8.422;2022-11-20T14:56:01;99769.13;;;13.03;62.98
24045;BME280;26257;49.442;8.422;2022-11-20T14:58:32;99764.34;;;13.39;63.16
24045;BME280;26257;49.442;8.422;2022-11-20T15:01:06;99781.63;;;12.92;63.58
24045;BME280;26257;49.442;8.422;2022-11-20T15:03:38;99772.47;;;13.24;63.34
24045;BME280;26257;49.442;8.422;2022-11-20T15:06:10;99768.06;;;13.23;63.41
24045;BME280;26257;49.442;8.422;2022-11-20T15:08:36;99762.09;;;12.99;62.74
24045;BME280;26257;49.442;8.422;2022-11-20T15:11:02;99758.69;;;12.90;62.63
24045;BME280;26257;49.442;8.422;2022-11-20T15:13:38;99756.84;;;12.95;63.38
24045;BME280;26257;49.442;8.422;2022-11-20T15:16:15;99762.06;;;13.01;62.86
24045;BME280;26257;49.442;8.422;2022-11-20T15:18:42;99758.63;;;12.94;61.70